createdAt,value
2018-12-30T00:01:16.705Z,5.70
2018-12-30T00:03:43.729Z,5.60
2018-12-30T00:06:10.621Z,5.70
2018-12-30T00:08:37.547Z,5.70
2018-12-30T00:11:04.496Z,5.60
2018-12-30T00:13:31.461Z,5.70
2018-12-30T00:15:58.412Z,5.60
2018-12-30T00:18:25.365Z,5.70
2018-12-30T00:20:52.333Z,5.60
2018-12-30T00:23:19.288Z,5.70
2018-12-30T00:25:46.230Z,5.70
2018-12-30T00:28:13.246Z,5.70
2018-12-30T00:30:40.184Z,5.70
2018-12-30T00:33:07.131Z,5.70
2018-12-30T00:35:34.110Z,5.70
2018-12-30T00:38:01.063Z,5.80
2018-12-30T00:40:27.999Z,5.80
2018-12-30T00:42:54.972Z,5.80
2018-12-30T00:45:21.908Z,5.80
2018-12-30T00:47:48.839Z,5.90
2018-12-30T00:50:15.811Z,5.90
2018-12-30T00:52:42.752Z,5.90
2018-12-30T00:55:09.707Z,5.90
2018-12-30T00:57:36.697Z,5.90
2018-12-30T01:00:03.680Z,6.00
2018-12-30T01:02:31.013Z,5.90
2018-12-30T01:04:57.960Z,5.70
2018-12-30T01:07:24.906Z,5.80
2018-12-30T01:09:51.852Z,5.90
2018-12-30T01:12:18.832Z,5.90
2018-12-30T01:14:45.791Z,5.90
2018-12-30T01:17:12.724Z,5.80
2018-12-30T01:19:39.694Z,5.90
2018-12-30T01:22:06.652Z,5.90
2018-12-30T01:24:33.592Z,5.90
2018-12-30T01:27:00.548Z,5.30
2018-12-30T01:29:27.504Z,5.90
2018-12-30T01:31:54.449Z,5.90
2018-12-30T01:34:21.401Z,5.80
2018-12-30T01:36:48.339Z,5.80
2018-12-30T01:39:15.292Z,5.80
2018-12-30T01:41:42.292Z,5.80
2018-12-30T01:44:09.188Z,5.80
2018-12-30T01:46:36.133Z,4.40
2018-12-30T01:49:03.091Z,5.80
2018-12-30T01:51:33.216Z,5.70
2018-12-30T01:53:56.976Z,5.90
2018-12-30T01:56:24.044Z,5.80
2018-12-30T01:58:50.996Z,6.90
2018-12-30T02:01:17.965Z,5.90
2018-12-30T02:03:45.517Z,5.90
2018-12-30T02:06:12.453Z,5.90
2018-12-30T02:08:39.387Z,6.00
2018-12-30T02:11:06.349Z,6.10
2018-12-30T02:13:33.290Z,6.10
2018-12-30T02:16:00.339Z,6.00
2018-12-30T02:18:27.793Z,6.00
2018-12-30T02:20:54.733Z,6.10
2018-12-30T02:23:21.673Z,6.10
2018-12-30T02:25:48.672Z,6.10
2018-12-30T02:28:15.608Z,6.10
2018-12-30T02:30:42.551Z,6.00
2018-12-30T02:33:09.516Z,5.90
2018-12-30T02:35:36.481Z,6.00
2018-12-30T02:38:03.448Z,6.10
2018-12-30T02:40:30.412Z,6.00
2018-12-30T02:42:57.354Z,6.00
2018-12-30T02:45:24.300Z,6.10
2018-12-30T02:47:51.311Z,6.00
2018-12-30T02:50:18.212Z,6.00
2018-12-30T02:52:45.158Z,6.00
2018-12-30T02:55:12.118Z,6.00
2018-12-30T02:57:39.068Z,6.00
2018-12-30T03:00:06.155Z,5.90
2018-12-30T03:02:33.108Z,5.80
2018-12-30T03:05:00.460Z,5.60
2018-12-30T03:07:27.160Z,5.80
2018-12-30T03:09:54.125Z,5.80
2018-12-30T03:12:21.084Z,5.90
2018-12-30T03:14:48.025Z,5.90
2018-12-30T03:17:14.989Z,5.90
2018-12-30T03:19:41.920Z,5.90
2018-12-30T03:22:08.869Z,6.00
2018-12-30T03:24:35.823Z,6.10
2018-12-30T03:27:02.755Z,5.90
2018-12-30T03:29:29.714Z,5.90
2018-12-30T03:31:56.666Z,6.00
2018-12-30T03:34:23.604Z,5.90
2018-12-30T03:36:50.545Z,6.00
2018-12-30T03:39:17.513Z,6.00
2018-12-30T03:41:44.481Z,5.90
2018-12-30T03:44:11.453Z,6.00
2018-12-30T03:46:38.405Z,6.10
2018-12-30T03:49:05.344Z,6.00
2018-12-30T03:51:32.284Z,6.00
2018-12-30T03:53:59.249Z,6.10
2018-12-30T03:56:26.195Z,6.10
2018-12-30T03:58:53.150Z,6.10
2018-12-30T04:01:20.125Z,6.10
2018-12-30T04:03:47.053Z,6.00
2018-12-30T04:06:14.392Z,6.00
2018-12-30T04:08:41.365Z,6.00
2018-12-30T04:11:08.301Z,6.10
2018-12-30T04:13:35.239Z,6.20
2018-12-30T04:16:02.227Z,6.30
2018-12-30T04:18:29.257Z,6.30
2018-12-30T04:20:56.130Z,6.30
2018-12-30T04:23:23.173Z,6.20
2018-12-30T04:25:50.112Z,6.20
2018-12-30T04:28:17.043Z,6.20
2018-12-30T04:30:44.004Z,6.20
2018-12-30T04:33:10.952Z,6.10
2018-12-30T04:35:37.876Z,6.10
2018-12-30T04:38:04.849Z,6.10
2018-12-30T04:40:31.772Z,6.10
2018-12-30T04:42:58.716Z,6.20
2018-12-30T04:45:25.692Z,6.20
2018-12-30T04:47:52.630Z,6.20
2018-12-30T04:50:19.574Z,6.10
2018-12-30T04:52:46.552Z,6.20
2018-12-30T04:55:13.501Z,6.10
2018-12-30T04:57:40.429Z,6.20
2018-12-30T05:00:07.401Z,6.20
2018-12-30T05:02:34.345Z,6.10
2018-12-30T05:05:01.275Z,6.10
2018-12-30T05:07:28.631Z,6.20
2018-12-30T05:09:55.585Z,6.10
2018-12-30T05:12:22.536Z,6.10
2018-12-30T05:14:49.484Z,6.10
2018-12-30T05:17:16.442Z,6.20
2018-12-30T05:19:43.373Z,6.10
2018-12-30T05:22:10.325Z,6.10
2018-12-30T05:24:37.251Z,6.10
2018-12-30T05:27:04.192Z,6.10
2018-12-30T05:29:31.155Z,6.20
2018-12-30T05:31:58.092Z,6.20
2018-12-30T05:34:25.028Z,6.30
2018-12-30T05:36:52.000Z,6.30
2018-12-30T05:39:18.943Z,6.30
2018-12-30T05:41:45.898Z,6.30
2018-12-30T05:44:12.871Z,6.40
2018-12-30T05:46:39.833Z,6.30
2018-12-30T05:49:06.823Z,6.40
2018-12-30T05:51:33.775Z,6.20
2018-12-30T05:54:00.719Z,6.20
2018-12-30T05:56:27.660Z,6.30
2018-12-30T05:58:54.601Z,6.20
2018-12-30T06:01:21.536Z,6.10
2018-12-30T06:03:48.472Z,6.10
2018-12-30T06:06:15.437Z,6.00
2018-12-30T06:08:42.546Z,6.00
2018-12-30T06:11:09.500Z,6.00
2018-12-30T06:13:36.447Z,6.10
2018-12-30T06:16:03.405Z,6.00
2018-12-30T06:18:30.341Z,6.10
2018-12-30T06:20:57.309Z,6.10
2018-12-30T06:23:24.254Z,6.10
2018-12-30T06:25:51.208Z,6.00
2018-12-30T06:28:18.176Z,6.00
2018-12-30T06:30:45.124Z,6.00
2018-12-30T06:33:12.073Z,6.00
2018-12-30T06:35:39.033Z,5.70
2018-12-30T06:38:05.960Z,5.90
2018-12-30T06:40:32.903Z,5.90
2018-12-30T06:42:59.880Z,5.90
2018-12-30T06:45:26.816Z,5.90
2018-12-30T06:47:53.779Z,6.00
2018-12-30T06:50:20.717Z,5.90
2018-12-30T06:52:47.653Z,5.90
2018-12-30T06:55:14.592Z,6.00
2018-12-30T06:57:41.561Z,5.90
2018-12-30T07:00:08.651Z,5.90
2018-12-30T07:02:35.582Z,5.80
2018-12-30T07:05:02.535Z,5.80
2018-12-30T07:07:29.473Z,5.90
2018-12-30T07:09:56.800Z,5.90
2018-12-30T07:12:23.756Z,5.90
2018-12-30T07:14:50.705Z,5.90
2018-12-30T07:17:17.642Z,5.80
2018-12-30T07:19:45.409Z,5.80
2018-12-30T07:22:11.614Z,5.80
2018-12-30T07:24:38.560Z,5.90
2018-12-30T07:27:05.512Z,6.00
2018-12-30T07:29:32.470Z,5.80
2018-12-30T07:31:59.460Z,5.70
2018-12-30T07:34:26.438Z,5.70
2018-12-30T07:36:53.397Z,5.90
2018-12-30T07:39:20.345Z,5.80
2018-12-30T07:41:47.326Z,5.90
2018-12-30T07:44:14.272Z,5.80
2018-12-30T07:46:41.217Z,5.80
2018-12-30T07:49:08.190Z,5.90
2018-12-30T07:51:35.141Z,6.00
2018-12-30T07:54:02.081Z,5.90
2018-12-30T07:56:29.037Z,5.90
2018-12-30T07:58:55.988Z,6.20
2018-12-30T08:01:22.973Z,6.00
2018-12-30T08:03:49.959Z,6.10
2018-12-30T08:06:16.922Z,6.20
2018-12-30T08:08:43.860Z,6.10
2018-12-30T08:11:11.036Z,6.10
2018-12-30T08:13:37.959Z,6.10
2018-12-30T08:16:04.893Z,6.30
2018-12-30T08:18:31.859Z,6.10
2018-12-30T08:20:58.800Z,6.10
2018-12-30T08:23:25.741Z,6.30
2018-12-30T08:25:52.696Z,6.10
2018-12-30T08:28:24.968Z,6.20
2018-12-30T08:30:46.581Z,6.30
2018-12-30T08:33:13.536Z,6.20
2018-12-30T08:35:40.504Z,6.30
2018-12-30T08:38:07.497Z,6.40
2018-12-30T08:40:34.456Z,5.90
2018-12-30T08:43:01.409Z,6.40
2018-12-30T08:45:28.364Z,6.30
2018-12-30T08:47:55.320Z,6.40
2018-12-30T08:50:22.250Z,6.60
2018-12-30T08:52:49.208Z,6.50
2018-12-30T08:55:16.164Z,6.50
2018-12-30T08:57:43.101Z,6.70
2018-12-30T09:00:10.283Z,6.80
2018-12-30T09:02:37.286Z,6.90
2018-12-30T09:05:04.225Z,6.80
2018-12-30T09:07:31.179Z,7.00
2018-12-30T09:09:58.131Z,7.10
2018-12-30T09:12:25.412Z,7.20
2018-12-30T09:14:52.347Z,7.40
2018-12-30T09:17:19.317Z,7.50
2018-12-30T09:19:46.252Z,7.50
2018-12-30T09:22:13.184Z,7.50
2018-12-30T09:24:40.150Z,7.50
2018-12-30T09:27:07.170Z,7.50
2018-12-30T09:29:34.039Z,7.50
2018-12-30T09:32:01.047Z,7.50
2018-12-30T09:34:28.062Z,7.50
2018-12-30T09:36:55.033Z,7.20
2018-12-30T09:39:22.066Z,7.40
2018-12-30T09:41:49.032Z,7.00
2018-12-30T09:44:16.031Z,6.70
2018-12-30T09:46:43.121Z,6.90
2018-12-30T09:49:10.128Z,6.90
2018-12-30T09:51:37.145Z,7.00
2018-12-30T09:54:04.544Z,7.10
2018-12-30T09:56:31.495Z,6.90
2018-12-30T09:58:58.435Z,7.00
2018-12-30T10:01:25.398Z,7.10
2018-12-30T10:03:52.336Z,7.10
2018-12-30T10:06:19.280Z,7.10
2018-12-30T10:08:46.228Z,6.90
2018-12-30T10:11:13.160Z,6.90
2018-12-30T10:13:41.244Z,6.90
2018-12-30T10:16:08.443Z,7.10
2018-12-30T10:18:35.412Z,7.00
2018-12-30T10:21:02.368Z,6.80
2018-12-30T10:23:29.404Z,6.70
2018-12-30T10:25:56.508Z,6.90
2018-12-30T10:28:30.526Z,7.00
2018-12-30T10:30:57.487Z,6.90
2018-12-30T10:33:24.453Z,7.20
2018-12-30T10:35:51.419Z,7.20
2018-12-30T10:38:19.268Z,7.00
2018-12-30T10:40:46.232Z,7.10
2018-12-30T10:43:13.288Z,7.10
2018-12-30T10:45:40.318Z,7.10
2018-12-30T10:48:07.242Z,7.10
2018-12-30T10:50:34.275Z,7.40
2018-12-30T10:53:01.276Z,7.20
2018-12-30T10:55:28.223Z,7.20
2018-12-30T10:57:55.171Z,7.30
2018-12-30T11:00:22.120Z,7.40
2018-12-30T11:02:49.065Z,7.40
2018-12-30T11:05:16.059Z,7.40
2018-12-30T11:07:43.293Z,7.40
2018-12-30T11:10:10.251Z,7.30
2018-12-30T11:12:37.225Z,7.30
2018-12-30T11:15:05.123Z,7.20
2018-12-30T11:17:32.084Z,7.10
2018-12-30T11:19:59.055Z,7.40
2018-12-30T11:22:26.091Z,7.30
2018-12-30T11:24:53.043Z,7.40
2018-12-30T11:27:20.024Z,7.90
2018-12-30T11:29:46.982Z,7.50
2018-12-30T11:32:14.444Z,7.40
2018-12-30T11:34:41.404Z,7.50
2018-12-30T11:37:08.351Z,7.50
2018-12-30T11:39:35.288Z,7.50
2018-12-30T11:42:02.249Z,7.60
2018-12-30T11:44:29.197Z,7.60
2018-12-30T11:46:56.133Z,7.70
2018-12-30T11:49:23.183Z,7.70
2018-12-30T11:51:50.125Z,7.60
2018-12-30T11:54:17.183Z,7.50
2018-12-30T11:56:44.131Z,7.50
2018-12-30T11:59:11.102Z,7.50
2018-12-30T12:01:38.071Z,7.40
2018-12-30T12:04:05.041Z,7.40
2018-12-30T12:06:31.985Z,7.40
2018-12-30T12:08:58.957Z,7.20
2018-12-30T12:11:25.909Z,7.20
2018-12-30T12:13:52.849Z,7.10
2018-12-30T12:16:20.706Z,7.10
2018-12-30T12:18:47.670Z,7.00
2018-12-30T12:21:14.614Z,7.00
2018-12-30T12:23:41.573Z,6.90
2018-12-30T12:26:08.583Z,6.90
2018-12-30T12:28:35.536Z,7.00
2018-12-30T12:31:02.488Z,7.00
2018-12-30T12:33:29.450Z,7.00
2018-12-30T12:35:56.400Z,7.20
2018-12-30T12:38:23.347Z,6.90
2018-12-30T12:40:50.308Z,7.00
2018-12-30T12:43:17.251Z,7.00
2018-12-30T12:45:44.190Z,7.20
2018-12-30T12:48:11.153Z,7.10
2018-12-30T12:50:38.092Z,7.10
2018-12-30T12:53:05.080Z,7.00
2018-12-30T12:55:32.166Z,6.10
2018-12-30T12:57:59.004Z,6.90
2018-12-30T13:00:25.945Z,6.90
2018-12-30T13:02:52.905Z,6.90
2018-12-30T13:05:19.841Z,6.80
2018-12-30T13:07:46.788Z,7.00
2018-12-30T13:10:13.766Z,7.00
2018-12-30T13:12:40.707Z,7.70
2018-12-30T13:15:08.937Z,6.90
2018-12-30T13:17:36.269Z,6.80
2018-12-30T13:20:03.502Z,6.80
2018-12-30T13:22:30.436Z,6.90
2018-12-30T13:24:57.393Z,7.10
2018-12-30T13:27:24.339Z,7.00
2018-12-30T13:29:51.313Z,7.00
2018-12-30T13:32:18.272Z,7.00
2018-12-30T13:34:45.235Z,7.00
2018-12-30T13:37:12.172Z,7.00
2018-12-30T13:39:39.193Z,7.00
2018-12-30T13:42:06.135Z,6.90
2018-12-30T13:44:33.064Z,7.00
2018-12-30T13:47:01.892Z,7.00
2018-12-30T13:49:26.981Z,7.10
2018-12-30T13:51:53.984Z,7.30
2018-12-30T13:54:20.942Z,7.10
2018-12-30T13:56:47.872Z,7.10
2018-12-30T13:59:14.921Z,7.10
2018-12-30T14:01:41.954Z,7.20
2018-12-30T14:04:09.138Z,7.30
2018-12-30T14:06:36.065Z,7.30
2018-12-30T14:09:05.307Z,7.30
2018-12-30T14:11:32.385Z,7.40
2018-12-30T14:13:59.263Z,7.40
2018-12-30T14:16:26.272Z,7.40
2018-12-30T14:18:53.928Z,7.50
2018-12-30T14:21:20.859Z,7.50
2018-12-30T14:23:47.960Z,7.40
2018-12-30T14:26:14.969Z,7.40
2018-12-30T14:28:41.947Z,7.50
2018-12-30T14:31:08.911Z,7.40
2018-12-30T14:33:35.868Z,7.50
2018-12-30T14:36:02.796Z,7.50
2018-12-30T14:38:29.857Z,7.60
2018-12-30T14:40:56.885Z,7.60
2018-12-30T14:43:23.825Z,8.20
2018-12-30T14:45:50.803Z,7.60
2018-12-30T14:48:17.764Z,7.50
2018-12-30T14:50:44.740Z,7.50
2018-12-30T14:53:19.070Z,7.50
2018-12-30T14:55:38.856Z,7.50
2018-12-30T14:58:06.091Z,7.60
2018-12-30T15:00:33.061Z,7.70
2018-12-30T15:03:00.005Z,7.60
2018-12-30T15:05:26.965Z,7.70
2018-12-30T15:07:53.899Z,7.50
2018-12-30T15:10:20.850Z,7.50
2018-12-30T15:12:47.771Z,7.40
2018-12-30T15:15:14.732Z,7.40
2018-12-30T15:17:41.660Z,7.40
2018-12-30T15:20:11.492Z,7.40
2018-12-30T15:22:38.454Z,7.40
2018-12-30T15:25:11.637Z,7.30
2018-12-30T15:27:32.328Z,7.20
2018-12-30T15:29:59.284Z,7.10
2018-12-30T15:32:26.224Z,7.20
2018-12-30T15:34:53.186Z,7.20
2018-12-30T15:37:20.149Z,7.20
2018-12-30T15:39:47.103Z,7.20
2018-12-30T15:42:18.857Z,7.20
2018-12-30T15:44:41.015Z,7.20
2018-12-30T15:47:08.001Z,7.10
2018-12-30T15:49:35.018Z,7.10
2018-12-30T15:52:02.020Z,7.10
2018-12-30T15:54:28.975Z,7.00
2018-12-30T15:56:55.923Z,6.90
2018-12-30T15:59:22.901Z,7.00
2018-12-30T16:01:50.073Z,6.10
2018-12-30T16:04:17.018Z,6.70
2018-12-30T16:06:44.793Z,6.80
2018-12-30T16:09:11.732Z,7.20
2018-12-30T16:11:38.669Z,6.60
2018-12-30T16:14:06.282Z,6.50
2018-12-30T16:16:32.613Z,6.40
2018-12-30T16:18:59.545Z,6.30
2018-12-30T16:21:27.867Z,6.30
2018-12-30T16:23:54.796Z,6.30
2018-12-30T16:26:21.739Z,6.30
2018-12-30T16:28:48.724Z,6.40
2018-12-30T16:31:15.652Z,6.50
2018-12-30T16:33:42.595Z,6.50
2018-12-30T16:36:09.556Z,6.60
2018-12-30T16:38:36.495Z,6.60
2018-12-30T16:41:03.441Z,6.70
2018-12-30T16:43:30.383Z,6.80
2018-12-30T16:45:57.327Z,6.80
2018-12-30T16:48:24.260Z,6.80
2018-12-30T16:50:51.229Z,6.90
2018-12-30T16:53:18.181Z,6.80
2018-12-30T16:55:45.119Z,6.90
2018-12-30T16:58:12.084Z,6.90
2018-12-30T17:00:39.021Z,6.80
2018-12-30T17:03:05.964Z,6.80
2018-12-30T17:05:32.921Z,6.90
2018-12-30T17:08:00.220Z,6.80
2018-12-30T17:10:27.165Z,6.90
2018-12-30T17:12:54.178Z,6.80
2018-12-30T17:15:21.119Z,6.90
2018-12-30T17:17:48.055Z,6.80
2018-12-30T17:20:15.004Z,6.80
2018-12-30T17:22:43.298Z,6.80
2018-12-30T17:25:10.245Z,6.80
2018-12-30T17:27:37.197Z,6.90
2018-12-30T17:30:05.357Z,6.90
2018-12-30T17:32:32.304Z,7.10
2018-12-30T17:34:59.243Z,6.90
2018-12-30T17:37:26.222Z,6.80
2018-12-30T17:39:53.168Z,6.70
2018-12-30T17:42:20.125Z,6.70
2018-12-30T17:44:47.093Z,6.80
2018-12-30T17:47:14.084Z,6.80
2018-12-30T17:49:41.037Z,6.90
2018-12-30T17:52:07.964Z,6.80
2018-12-30T17:54:34.904Z,6.80
2018-12-30T17:57:01.868Z,6.70
2018-12-30T17:59:28.827Z,6.60
2018-12-30T18:01:55.759Z,6.40
2018-12-30T18:04:22.718Z,6.50
2018-12-30T18:06:49.651Z,6.50
2018-12-30T18:09:16.591Z,6.40
2018-12-30T18:11:43.543Z,6.50
2018-12-30T18:14:10.533Z,6.40
2018-12-30T18:16:37.463Z,6.50
2018-12-30T18:19:04.427Z,6.70
2018-12-30T18:21:31.360Z,6.60
2018-12-30T18:23:58.802Z,6.80
2018-12-30T18:26:25.756Z,6.60
2018-12-30T18:28:52.720Z,6.70
2018-12-30T18:31:19.667Z,6.60
2018-12-30T18:33:46.625Z,6.80
2018-12-30T18:36:13.570Z,6.80
2018-12-30T18:38:40.512Z,6.80
2018-12-30T18:41:07.468Z,6.80
2018-12-30T18:43:34.399Z,6.80
2018-12-30T18:46:01.351Z,6.80
2018-12-30T18:48:28.308Z,6.80
2018-12-30T18:50:56.163Z,6.80
2018-12-30T18:53:23.107Z,6.80
2018-12-30T18:55:50.063Z,6.80
2018-12-30T18:58:17.004Z,6.90
2018-12-30T19:00:43.945Z,6.80
2018-12-30T19:03:10.923Z,6.80
2018-12-30T19:05:38.103Z,6.90
2018-12-30T19:08:05.043Z,6.90
2018-12-30T19:10:32.015Z,6.90
2018-12-30T19:12:59.002Z,6.90
2018-12-30T19:15:25.995Z,7.00
2018-12-30T19:17:52.987Z,6.80
2018-12-30T19:20:19.927Z,6.80
2018-12-30T19:22:46.928Z,6.80
2018-12-30T19:25:14.725Z,6.80
2018-12-30T19:27:41.689Z,6.90
2018-12-30T19:30:09.744Z,6.90
2018-12-30T19:32:36.710Z,6.90
2018-12-30T19:35:03.794Z,6.90
2018-12-30T19:37:30.754Z,6.90
2018-12-30T19:39:57.728Z,7.00
2018-12-30T19:42:24.700Z,7.10
2018-12-30T19:44:51.679Z,7.00
2018-12-30T19:47:18.639Z,7.00
2018-12-30T19:49:45.631Z,7.00
2018-12-30T19:52:12.603Z,7.00
2018-12-30T19:54:39.583Z,7.10
2018-12-30T19:57:06.556Z,7.00
2018-12-30T19:59:33.523Z,7.20
2018-12-30T20:02:00.491Z,7.10
2018-12-30T20:04:27.503Z,7.20
2018-12-30T20:06:54.563Z,7.20
2018-12-30T20:09:21.552Z,7.10
2018-12-30T20:11:48.514Z,7.20
2018-12-30T20:14:15.476Z,7.10
2018-12-30T20:16:42.444Z,7.10
2018-12-30T20:19:09.444Z,7.20
2018-12-30T20:21:36.372Z,7.20
2018-12-30T20:24:03.454Z,7.10
2018-12-30T20:26:31.030Z,7.10
2018-12-30T20:28:57.974Z,7.10
2018-12-30T20:31:24.968Z,7.10
2018-12-30T20:33:51.936Z,7.10
2018-12-30T20:36:18.878Z,7.10
2018-12-30T20:38:45.843Z,7.10
2018-12-30T20:41:12.779Z,7.10
2018-12-30T20:43:39.727Z,7.00
2018-12-30T20:46:06.697Z,7.00
2018-12-30T20:48:33.632Z,7.00
2018-12-30T20:51:00.577Z,7.00
2018-12-30T20:53:27.589Z,7.10
2018-12-30T20:55:54.556Z,6.90
2018-12-30T20:58:21.524Z,6.90
2018-12-30T21:00:48.528Z,6.90
2018-12-30T21:03:15.503Z,6.90
2018-12-30T21:05:42.520Z,6.90
2018-12-30T21:08:09.512Z,6.90
2018-12-30T21:10:36.470Z,6.90
2018-12-30T21:13:03.433Z,6.80
2018-12-30T21:15:30.412Z,6.90
2018-12-30T21:17:57.364Z,6.70
2018-12-30T21:20:24.328Z,6.70
2018-12-30T21:22:51.287Z,6.60
2018-12-30T21:25:18.224Z,6.70
2018-12-30T21:27:46.619Z,6.60
2018-12-30T21:30:13.599Z,7.70
2018-12-30T21:32:40.579Z,6.60
2018-12-30T21:35:07.535Z,6.60
2018-12-30T21:37:34.498Z,6.50
2018-12-30T21:40:01.493Z,6.60
2018-12-30T21:42:28.445Z,6.50
2018-12-30T21:44:55.383Z,6.60
2018-12-30T21:47:22.325Z,6.60
2018-12-30T21:49:49.277Z,6.80
2018-12-30T21:52:16.236Z,7.00
2018-12-30T21:54:43.213Z,6.70
2018-12-30T21:57:10.160Z,7.00
2018-12-30T21:59:37.142Z,6.50
2018-12-30T22:02:04.098Z,6.60
2018-12-30T22:04:31.053Z,6.50
2018-12-30T22:06:58.027Z,6.60
2018-12-30T22:09:25.001Z,6.60
2018-12-30T22:11:51.953Z,6.60
2018-12-30T22:14:18.955Z,6.60
2018-12-30T22:16:45.927Z,6.60
2018-12-30T22:19:12.888Z,6.60
2018-12-30T22:21:39.856Z,6.60
2018-12-30T22:24:06.809Z,6.50
2018-12-30T22:26:33.762Z,6.50
2018-12-30T22:29:02.378Z,5.10
2018-12-30T22:31:29.349Z,6.50
2018-12-30T22:33:56.328Z,6.50
2018-12-30T22:36:23.297Z,6.50
2018-12-30T22:38:52.800Z,6.50
2018-12-30T22:41:17.237Z,6.50
2018-12-30T22:43:44.228Z,6.50
2018-12-30T22:46:11.175Z,6.50
2018-12-30T22:48:38.124Z,6.50
2018-12-30T22:51:05.080Z,6.50
2018-12-30T22:53:32.017Z,6.50
2018-12-30T22:55:58.961Z,6.60
2018-12-30T22:58:25.917Z,6.60
2018-12-30T23:00:56.999Z,6.50
2018-12-30T23:03:23.949Z,6.70
2018-12-30T23:05:50.920Z,6.60
2018-12-30T23:08:17.895Z,6.60
2018-12-30T23:10:44.897Z,6.60
2018-12-30T23:13:11.856Z,6.60
2018-12-30T23:15:38.799Z,6.80
2018-12-30T23:18:05.753Z,6.60
2018-12-30T23:20:32.720Z,6.60
2018-12-30T23:22:59.831Z,6.70
2018-12-30T23:25:26.774Z,6.70
2018-12-30T23:27:53.747Z,6.70
2018-12-30T23:30:21.071Z,6.70
2018-12-30T23:32:48.044Z,6.60
2018-12-30T23:35:15.028Z,6.70
2018-12-30T23:37:42.004Z,6.70
2018-12-30T23:40:08.975Z,6.60
2018-12-30T23:42:35.931Z,6.70
2018-12-30T23:45:03.128Z,6.70
2018-12-30T23:47:30.108Z,6.70
2018-12-30T23:49:57.064Z,6.70
2018-12-30T23:52:24.025Z,6.70
2018-12-30T23:54:50.959Z,6.60
2018-12-30T23:57:17.975Z,6.60
2018-12-30T23:59:44.953Z,6.70
